sensor_id;sensor_type;location;lat;lon;timestamp;P1;durP1;ratioP1;P2;durP2;ratioP2
40951;SDS011;26682;51.660;19.338;2023-04-23T00:02:17;17.25;;;11.40;;
40951;SDS011;26682;51.660;19.338;2023-04-23T00:05:02;20.48;;;11.52;;
40951;SDS011;26682;51.660;19.338;2023-04-23T00:07:47;16.52;;;10.35;;
40951;SDS011;26682;51.660;19.338;2023-04-23T00:10:30;22.77;;;12.10;;
40951;SDS011;26682;51.660;19.338;2023-04-23T00:13:12;17.88;;;10.82;;
40951;SDS011;26682;51.660;19.338;2023-04-23T00:15:56;18.67;;;11.05;;
40951;SDS011;26682;51.660;19.338;2023-04-23T00:18:38;21.02;;;11.05;;
40951;SDS011;26682;51.660;19.338;2023-04-23T00:21:21;15.23;;;10.73;;
40951;SDS011;26682;51.660;19.338;2023-04-23T00:24:03;15.38;;;10.35;;
40951;SDS011;26682;51.660;19.338;2023-04-23T00:26:46;16.92;;;10.65;;
40951;SDS011;26682;51.660;19.338;2023-04-23T00:29:29;18.15;;;10.07;;
40951;SDS011;26682;51.660;19.338;2023-04-23T00:32:11;14.63;;;9.82;;
40951;SDS011;26682;51.660;19.338;2023-04-23T00:34:55;15.80;;;10.05;;
40951;SDS011;26682;51.660;19.338;2023-04-23T00:37:38;16.40;;;10.30;;
40951;SDS011;26682;51.660;19.338;2023-04-23T00:40:21;20.10;;;10.07;;
40951;SDS011;26682;51.660;19.338;2023-04-23T00:43:04;16.13;;;9.15;;
40951;SDS011;26682;51.660;19.338;2023-04-23T00:45:48;14.32;;;10.30;;
40951;SDS011;26682;51.660;19.338;2023-04-23T00:48:32;16.25;;;9.32;;
40951;SDS011;26682;51.660;19.338;2023-04-23T00:51:15;17.70;;;9.65;;
40951;SDS011;26682;51.660;19.338;2023-04-23T00:53:58;15.52;;;9.57;;
40951;SDS011;26682;51.660;19.338;2023-04-23T00:56:41;14.57;;;9.23;;
40951;SDS011;26682;51.660;19.338;2023-04-23T00:59:24;16.42;;;9.30;;
40951;SDS011;26682;51.660;19.338;2023-04-23T01:02:07;14.68;;;9.30;;
40951;SDS011;26682;51.660;19.338;2023-04-23T01:04:50;15.60;;;9.27;;
40951;SDS011;26682;51.660;19.338;2023-04-23T01:07:34;18.60;;;9.05;;
40951;SDS011;26682;51.660;19.338;2023-04-23T01:10:17;12.73;;;9.30;;
40951;SDS011;26682;51.660;19.338;2023-04-23T01:13:00;11.90;;;9.02;;
40951;SDS011;26682;51.660;19.338;2023-04-23T01:15:43;15.75;;;9.05;;
40951;SDS011;26682;51.660;19.338;2023-04-23T01:18:26;16.20;;;9.30;;
40951;SDS011;26682;51.660;19.338;2023-04-23T01:21:09;16.35;;;9.52;;
40951;SDS011;26682;51.660;19.338;2023-04-23T01:23:53;18.38;;;8.95;;
40951;SDS011;26682;51.660;19.338;2023-04-23T01:26:37;17.55;;;9.30;;
40951;SDS011;26682;51.660;19.338;2023-04-23T01:29:20;16.42;;;9.68;;
40951;SDS011;26682;51.660;19.338;2023-04-23T01:32:06;14.93;;;9.60;;
40951;SDS011;26682;51.660;19.338;2023-04-23T01:34:51;15.40;;;9.82;;
40951;SDS011;26682;51.660;19.338;2023-04-23T01:37:35;16.20;;;9.45;;
40951;SDS011;26682;51.660;19.338;2023-04-23T01:40:20;14.27;;;9.77;;
40951;SDS011;26682;51.660;19.338;2023-04-23T01:43:03;17.45;;;9.80;;
40951;SDS011;26682;51.660;19.338;2023-04-23T01:45:46;18.48;;;10.32;;
40951;SDS011;26682;51.660;19.338;2023-04-23T01:48:29;13.75;;;9.70;;
40951;SDS011;26682;51.660;19.338;2023-04-23T01:51:12;14.30;;;9.65;;
40951;SDS011;26682;51.660;19.338;2023-04-23T01:53:55;15.52;;;10.70;;
40951;SDS011;26682;51.660;19.338;2023-04-23T01:56:38;12.05;;;9.55;;
40951;SDS011;26682;51.660;19.338;2023-04-23T01:59:20;12.52;;;9.75;;
40951;SDS011;26682;51.660;19.338;2023-04-23T02:02:03;15.38;;;9.77;;
40951;SDS011;26682;51.660;19.338;2023-04-23T02:04:46;13.82;;;9.73;;
40951;SDS011;26682;51.660;19.338;2023-04-23T02:07:32;15.15;;;9.35;;
40951;SDS011;26682;51.660;19.338;2023-04-23T02:13:00;13.40;;;9.90;;
40951;SDS011;26682;51.660;19.338;2023-04-23T02:15:43;14.65;;;10.48;;
40951;SDS011;26682;51.660;19.338;2023-04-23T02:18:27;15.27;;;10.07;;
40951;SDS011;26682;51.660;19.338;2023-04-23T02:21:10;15.75;;;9.80;;
40951;SDS011;26682;51.660;19.338;2023-04-23T02:23:53;15.25;;;10.25;;
40951;SDS011;26682;51.660;19.338;2023-04-23T02:26:36;17.45;;;10.05;;
40951;SDS011;26682;51.660;19.338;2023-04-23T02:29:18;20.80;;;10.25;;
40951;SDS011;26682;51.660;19.338;2023-04-23T02:32:02;13.60;;;10.07;;
40951;SDS011;26682;51.660;19.338;2023-04-23T02:34:45;15.52;;;10.23;;
40951;SDS011;26682;51.660;19.338;2023-04-23T02:37:27;18.67;;;10.80;;
40951;SDS011;26682;51.660;19.338;2023-04-23T02:40:09;15.35;;;10.65;;
40951;SDS011;26682;51.660;19.338;2023-04-23T02:42:52;16.33;;;10.38;;
40951;SDS011;26682;51.660;19.338;2023-04-23T02:45:36;17.10;;;10.63;;
40951;SDS011;26682;51.660;19.338;2023-04-23T02:48:18;14.30;;;10.70;;
40951;SDS011;26682;51.660;19.338;2023-04-23T02:51:03;17.13;;;11.02;;
40951;SDS011;26682;51.660;19.338;2023-04-23T02:53:47;19.35;;;11.15;;
40951;SDS011;26682;51.660;19.338;2023-04-23T02:56:29;20.17;;;11.30;;
40951;SDS011;26682;51.660;19.338;2023-04-23T02:59:12;14.00;;;10.52;;
40951;SDS011;26682;51.660;19.338;2023-04-23T03:01:54;15.93;;;11.00;;
40951;SDS011;26682;51.660;19.338;2023-04-23T03:04:37;17.20;;;11.70;;
40951;SDS011;26682;51.660;19.338;2023-04-23T03:07:20;17.83;;;11.68;;
40951;SDS011;26682;51.660;19.338;2023-04-23T03:10:03;21.63;;;11.13;;
40951;SDS011;26682;51.660;19.338;2023-04-23T03:12:46;14.60;;;10.82;;
40951;SDS011;26682;51.660;19.338;2023-04-23T03:15:29;18.50;;;11.18;;
40951;SDS011;26682;51.660;19.338;2023-04-23T03:18:12;18.27;;;12.75;;
40951;SDS011;26682;51.660;19.338;2023-04-23T03:20:55;17.83;;;11.15;;
40951;SDS011;26682;51.660;19.338;2023-04-23T03:23:37;18.50;;;10.82;;
40951;SDS011;26682;51.660;19.338;2023-04-23T03:26:21;18.00;;;12.10;;
40951;SDS011;26682;51.660;19.338;2023-04-23T03:29:04;18.92;;;11.18;;
40951;SDS011;26682;51.660;19.338;2023-04-23T03:31:47;18.55;;;12.13;;
40951;SDS011;26682;51.660;19.338;2023-04-23T03:34:30;18.25;;;10.77;;
40951;SDS011;26682;51.660;19.338;2023-04-23T03:37:13;15.85;;;11.05;;
40951;SDS011;26682;51.660;19.338;2023-04-23T03:39:56;16.65;;;12.00;;
40951;SDS011;26682;51.660;19.338;2023-04-23T03:42:38;17.90;;;12.05;;
40951;SDS011;26682;51.660;19.338;2023-04-23T03:45:22;19.48;;;11.77;;
40951;SDS011;26682;51.660;19.338;2023-04-23T03:48:05;17.55;;;11.55;;
40951;SDS011;26682;51.660;19.338;2023-04-23T03:50:48;19.42;;;11.98;;
40951;SDS011;26682;51.660;19.338;2023-04-23T03:53:45;15.77;;;11.23;;
40951;SDS011;26682;51.660;19.338;2023-04-23T03:56:48;17.90;;;10.82;;
40951;SDS011;26682;51.660;19.338;2023-04-23T03:59:41;17.35;;;10.80;;
40951;SDS011;26682;51.660;19.338;2023-04-23T04:02:25;13.32;;;10.10;;
40951;SDS011;26682;51.660;19.338;2023-04-23T04:05:09;16.65;;;10.85;;
40951;SDS011;26682;51.660;19.338;2023-04-23T04:07:53;18.23;;;11.07;;
40951;SDS011;26682;51.660;19.338;2023-04-23T04:10:35;16.85;;;11.50;;
40951;SDS011;26682;51.660;19.338;2023-04-23T04:13:18;17.73;;;11.85;;
40951;SDS011;26682;51.660;19.338;2023-04-23T04:16:00;16.80;;;11.45;;
40951;SDS011;26682;51.660;19.338;2023-04-23T04:18:43;16.08;;;11.38;;
40951;SDS011;26682;51.660;19.338;2023-04-23T04:21:26;17.63;;;11.43;;
40951;SDS011;26682;51.660;19.338;2023-04-23T04:24:08;18.27;;;11.27;;
40951;SDS011;26682;51.660;19.338;2023-04-23T04:26:52;18.55;;;11.63;;
40951;SDS011;26682;51.660;19.338;2023-04-23T04:29:35;18.85;;;11.45;;
40951;SDS011;26682;51.660;19.338;2023-04-23T04:32:18;15.70;;;10.48;;
40951;SDS011;26682;51.660;19.338;2023-04-23T04:35:00;20.25;;;11.13;;
40951;SDS011;26682;51.660;19.338;2023-04-23T04:37:43;18.08;;;10.95;;
40951;SDS011;26682;51.660;19.338;2023-04-23T04:40:26;15.52;;;10.75;;
40951;SDS011;26682;51.660;19.338;2023-04-23T04:43:09;17.08;;;11.50;;
40951;SDS011;26682;51.660;19.338;2023-04-23T04:45:53;15.88;;;11.32;;
40951;SDS011;26682;51.660;19.338;2023-04-23T04:48:37;18.05;;;11.40;;
40951;SDS011;26682;51.660;19.338;2023-04-23T04:51:20;18.42;;;11.43;;
40951;SDS011;26682;51.660;19.338;2023-04-23T04:54:03;24.05;;;11.52;;
40951;SDS011;26682;51.660;19.338;2023-04-23T04:56:45;15.00;;;11.07;;
40951;SDS011;26682;51.660;19.338;2023-04-23T04:59:27;17.35;;;11.95;;
40951;SDS011;26682;51.660;19.338;2023-04-23T05:02:10;14.10;;;10.63;;
40951;SDS011;26682;51.660;19.338;2023-04-23T05:04:52;18.40;;;10.60;;
40951;SDS011;26682;51.660;19.338;2023-04-23T05:07:35;13.20;;;10.25;;
40951;SDS011;26682;51.660;19.338;2023-04-23T05:10:17;14.07;;;10.80;;
40951;SDS011;26682;51.660;19.338;2023-04-23T05:12:59;17.10;;;11.68;;
40951;SDS011;26682;51.660;19.338;2023-04-23T05:15:48;17.25;;;10.50;;
40951;SDS011;26682;51.660;19.338;2023-04-23T05:18:30;15.38;;;10.77;;
40951;SDS011;26682;51.660;19.338;2023-04-23T05:21:13;13.90;;;10.80;;
40951;SDS011;26682;51.660;19.338;2023-04-23T05:23:56;14.32;;;11.43;;
40951;SDS011;26682;51.660;19.338;2023-04-23T05:26:38;16.17;;;10.93;;
40951;SDS011;26682;51.660;19.338;2023-04-23T05:29:21;14.20;;;10.98;;
40951;SDS011;26682;51.660;19.338;2023-04-23T05:32:03;14.70;;;11.20;;
40951;SDS011;26682;51.660;19.338;2023-04-23T05:34:46;13.48;;;10.65;;
40951;SDS011;26682;51.660;19.338;2023-04-23T05:37:29;13.40;;;10.50;;
40951;SDS011;26682;51.660;19.338;2023-04-23T05:40:11;16.90;;;11.80;;
40951;SDS011;26682;51.660;19.338;2023-04-23T05:42:56;17.48;;;11.38;;
40951;SDS011;26682;51.660;19.338;2023-04-23T05:45:39;13.85;;;10.60;;
40951;SDS011;26682;51.660;19.338;2023-04-23T05:48:22;13.13;;;9.80;;
40951;SDS011;26682;51.660;19.338;2023-04-23T05:51:04;14.80;;;10.68;;
40951;SDS011;26682;51.660;19.338;2023-04-23T05:53:47;15.82;;;11.05;;
40951;SDS011;26682;51.660;19.338;2023-04-23T05:56:30;14.48;;;10.75;;
40951;SDS011;26682;51.660;19.338;2023-04-23T05:59:15;14.07;;;10.35;;
40951;SDS011;26682;51.660;19.338;2023-04-23T06:01:57;13.85;;;10.70;;
40951;SDS011;26682;51.660;19.338;2023-04-23T06:04:41;16.15;;;10.60;;
40951;SDS011;26682;51.660;19.338;2023-04-23T06:07:24;15.70;;;10.90;;
40951;SDS011;26682;51.660;19.338;2023-04-23T06:10:07;12.85;;;10.23;;
40951;SDS011;26682;51.660;19.338;2023-04-23T06:12:50;14.60;;;10.00;;
40951;SDS011;26682;51.660;19.338;2023-04-23T06:15:35;15.45;;;9.95;;
40951;SDS011;26682;51.660;19.338;2023-04-23T06:18:17;13.35;;;9.45;;
40951;SDS011;26682;51.660;19.338;2023-04-23T06:21:00;14.05;;;9.30;;
40951;SDS011;26682;51.660;19.338;2023-04-23T06:23:44;10.82;;;8.95;;
40951;SDS011;26682;51.660;19.338;2023-04-23T06:26:27;11.70;;;8.82;;
40951;SDS011;26682;51.660;19.338;2023-04-23T06:29:15;13.68;;;10.25;;
40951;SDS011;26682;51.660;19.338;2023-04-23T06:32:08;13.98;;;9.18;;
40951;SDS011;26682;51.660;19.338;2023-04-23T06:34:51;10.52;;;8.27;;
40951;SDS011;26682;51.660;19.338;2023-04-23T06:37:42;15.77;;;9.23;;
40951;SDS011;26682;51.660;19.338;2023-04-23T06:40:24;11.55;;;7.72;;
40951;SDS011;26682;51.660;19.338;2023-04-23T06:43:07;10.18;;;8.10;;
40951;SDS011;26682;51.660;19.338;2023-04-23T06:46:09;11.57;;;7.40;;
40951;SDS011;26682;51.660;19.338;2023-04-23T06:48:52;11.70;;;6.82;;
40951;SDS011;26682;51.660;19.338;2023-04-23T06:51:34;11.93;;;8.10;;
40951;SDS011;26682;51.660;19.338;2023-04-23T06:54:17;11.90;;;7.32;;
40951;SDS011;26682;51.660;19.338;2023-04-23T06:56:59;11.73;;;7.22;;
40951;SDS011;26682;51.660;19.338;2023-04-23T06:59:42;8.63;;;6.70;;
40951;SDS011;26682;51.660;19.338;2023-04-23T07:02:25;12.05;;;7.03;;
40951;SDS011;26682;51.660;19.338;2023-04-23T07:05:08;11.20;;;6.95;;
40951;SDS011;26682;51.660;19.338;2023-04-23T07:07:50;13.75;;;7.22;;
40951;SDS011;26682;51.660;19.338;2023-04-23T07:10:34;11.77;;;7.22;;
40951;SDS011;26682;51.660;19.338;2023-04-23T07:13:17;11.35;;;6.63;;
40951;SDS011;26682;51.660;19.338;2023-04-23T07:15:59;10.23;;;6.50;;
40951;SDS011;26682;51.660;19.338;2023-04-23T07:18:42;10.48;;;6.43;;
40951;SDS011;26682;51.660;19.338;2023-04-23T07:21:25;41.80;;;7.38;;
40951;SDS011;26682;51.660;19.338;2023-04-23T07:24:09;8.98;;;6.32;;
40951;SDS011;26682;51.660;19.338;2023-04-23T07:26:53;11.60;;;6.65;;
40951;SDS011;26682;51.660;19.338;2023-04-23T07:29:36;8.68;;;6.30;;
40951;SDS011;26682;51.660;19.338;2023-04-23T07:32:19;11.73;;;6.10;;
40951;SDS011;26682;51.660;19.338;2023-04-23T07:35:04;10.43;;;5.90;;
40951;SDS011;26682;51.660;19.338;2023-04-23T07:37:48;9.65;;;6.68;;
40951;SDS011;26682;51.660;19.338;2023-04-23T07:40:34;11.00;;;6.30;;
40951;SDS011;26682;51.660;19.338;2023-04-23T07:43:18;10.43;;;6.38;;
40951;SDS011;26682;51.660;19.338;2023-04-23T07:46:00;7.80;;;5.78;;
40951;SDS011;26682;51.660;19.338;2023-04-23T07:48:43;9.57;;;5.60;;
40951;SDS011;26682;51.660;19.338;2023-04-23T07:51:25;13.32;;;6.18;;
40951;SDS011;26682;51.660;19.338;2023-04-23T07:54:09;17.92;;;6.18;;
40951;SDS011;26682;51.660;19.338;2023-04-23T07:56:52;11.82;;;6.22;;
40951;SDS011;26682;51.660;19.338;2023-04-23T07:59:35;10.02;;;5.97;;
40951;SDS011;26682;51.660;19.338;2023-04-23T08:02:20;11.10;;;6.20;;
40951;SDS011;26682;51.660;19.338;2023-04-23T08:05:07;13.20;;;6.43;;
40951;SDS011;26682;51.660;19.338;2023-04-23T08:07:50;12.48;;;5.18;;
40951;SDS011;26682;51.660;19.338;2023-04-23T08:10:34;10.65;;;5.80;;
40951;SDS011;26682;51.660;19.338;2023-04-23T08:13:17;10.05;;;6.28;;
40951;SDS011;26682;51.660;19.338;2023-04-23T08:16:00;10.80;;;5.20;;
40951;SDS011;26682;51.660;19.338;2023-04-23T08:18:43;13.52;;;7.28;;
40951;SDS011;26682;51.660;19.338;2023-04-23T08:21:45;8.80;;;5.80;;
40951;SDS011;26682;51.660;19.338;2023-04-23T08:24:28;12.15;;;5.53;;
40951;SDS011;26682;51.660;19.338;2023-04-23T08:27:10;9.60;;;5.40;;
40951;SDS011;26682;51.660;19.338;2023-04-23T08:29:53;9.48;;;5.25;;
40951;SDS011;26682;51.660;19.338;2023-04-23T08:32:37;14.35;;;5.15;;
40951;SDS011;26682;51.660;19.338;2023-04-23T08:35:22;10.45;;;4.55;;
40951;SDS011;26682;51.660;19.338;2023-04-23T08:38:05;7.23;;;4.70;;
40951;SDS011;26682;51.660;19.338;2023-04-23T08:40:48;13.23;;;5.10;;
40951;SDS011;26682;51.660;19.338;2023-04-23T08:43:43;8.85;;;4.57;;
40951;SDS011;26682;51.660;19.338;2023-04-23T08:46:32;8.02;;;4.38;;
40951;SDS011;26682;51.660;19.338;2023-04-23T08:49:19;9.32;;;4.00;;
40951;SDS011;26682;51.660;19.338;2023-04-23T08:52:09;6.88;;;3.65;;
40951;SDS011;26682;51.660;19.338;2023-04-23T08:55:03;5.68;;;3.95;;
40951;SDS011;26682;51.660;19.338;2023-04-23T08:57:48;7.67;;;3.60;;
40951;SDS011;26682;51.660;19.338;2023-04-23T09:00:31;7.20;;;3.33;;
40951;SDS011;26682;51.660;19.338;2023-04-23T09:03:15;7.07;;;4.20;;
40951;SDS011;26682;51.660;19.338;2023-04-23T09:05:59;6.95;;;3.80;;
40951;SDS011;26682;51.660;19.338;2023-04-23T09:08:42;10.73;;;4.13;;
40951;SDS011;26682;51.660;19.338;2023-04-23T09:11:27;8.27;;;4.05;;
40951;SDS011;26682;51.660;19.338;2023-04-23T09:14:11;5.88;;;3.90;;
40951;SDS011;26682;51.660;19.338;2023-04-23T09:16:55;10.55;;;3.85;;
40951;SDS011;26682;51.660;19.338;2023-04-23T09:19:38;6.78;;;3.50;;
40951;SDS011;26682;51.660;19.338;2023-04-23T09:25:24;8.60;;;3.88;;
40951;SDS011;26682;51.660;19.338;2023-04-23T09:28:08;11.05;;;6.15;;
40951;SDS011;26682;51.660;19.338;2023-04-23T09:30:54;9.50;;;4.88;;
40951;SDS011;26682;51.660;19.338;2023-04-23T09:33:37;13.68;;;3.30;;
40951;SDS011;26682;51.660;19.338;2023-04-23T09:36:23;11.30;;;3.83;;
40951;SDS011;26682;51.660;19.338;2023-04-23T09:41:53;7.22;;;3.80;;
40951;SDS011;26682;51.660;19.338;2023-04-23T09:44:36;8.45;;;3.60;;
40951;SDS011;26682;51.660;19.338;2023-04-23T09:47:18;6.60;;;3.17;;
40951;SDS011;26682;51.660;19.338;2023-04-23T09:50:03;10.55;;;3.50;;
40951;SDS011;26682;51.660;19.338;2023-04-23T09:52:52;10.50;;;3.67;;
40951;SDS011;26682;51.660;19.338;2023-04-23T09:55:37;4.07;;;3.05;;
40951;SDS011;26682;51.660;19.338;2023-04-23T09:58:20;8.75;;;3.38;;
40951;SDS011;26682;51.660;19.338;2023-04-23T10:01:09;6.50;;;3.90;;
40951;SDS011;26682;51.660;19.338;2023-04-23T10:03:52;6.30;;;3.47;;
40951;SDS011;26682;51.660;19.338;2023-04-23T10:06:34;5.80;;;3.30;;
40951;SDS011;26682;51.660;19.338;2023-04-23T10:09:20;7.40;;;2.90;;
40951;SDS011;26682;51.660;19.338;2023-04-23T10:12:06;6.93;;;4.32;;
40951;SDS011;26682;51.660;19.338;2023-04-23T10:15:10;29.30;;;4.57;;
40951;SDS011;26682;51.660;19.338;2023-04-23T10:17:53;10.25;;;3.58;;
40951;SDS011;26682;51.660;19.338;2023-04-23T10:20:36;12.73;;;3.95;;
40951;SDS011;26682;51.660;19.338;2023-04-23T10:23:19;6.35;;;3.50;;
40951;SDS011;26682;51.660;19.338;2023-04-23T10:26:04;7.18;;;4.00;;
40951;SDS011;26682;51.660;19.338;2023-04-23T10:28:47;8.93;;;3.83;;
40951;SDS011;26682;51.660;19.338;2023-04-23T10:31:35;7.63;;;3.65;;
40951;SDS011;26682;51.660;19.338;2023-04-23T10:34:18;5.85;;;3.78;;
40951;SDS011;26682;51.660;19.338;2023-04-23T10:37:01;6.80;;;3.13;;
40951;SDS011;26682;51.660;19.338;2023-04-23T10:39:49;8.80;;;3.58;;
40951;SDS011;26682;51.660;19.338;2023-04-23T10:42:35;5.82;;;3.30;;
40951;SDS011;26682;51.660;19.338;2023-04-23T10:45:19;10.88;;;3.92;;
40951;SDS011;26682;51.660;19.338;2023-04-23T10:48:06;13.13;;;4.78;;
40951;SDS011;26682;51.660;19.338;2023-04-23T10:50:56;6.95;;;3.10;;
40951;SDS011;26682;51.660;19.338;2023-04-23T10:53:59;9.35;;;5.00;;
40951;SDS011;26682;51.660;19.338;2023-04-23T10:56:44;8.32;;;3.38;;
40951;SDS011;26682;51.660;19.338;2023-04-23T10:59:26;9.05;;;2.80;;
40951;SDS011;26682;51.660;19.338;2023-04-23T11:02:13;9.15;;;3.20;;
40951;SDS011;26682;51.660;19.338;2023-04-23T11:04:56;9.10;;;2.80;;
40951;SDS011;26682;51.660;19.338;2023-04-23T11:07:39;8.27;;;3.30;;
40951;SDS011;26682;51.660;19.338;2023-04-23T11:10:23;4.13;;;3.25;;
40951;SDS011;26682;51.660;19.338;2023-04-23T11:13:24;12.75;;;3.10;;
40951;SDS011;26682;51.660;19.338;2023-04-23T11:16:15;14.07;;;3.63;;
40951;SDS011;26682;51.660;19.338;2023-04-23T11:22:04;5.30;;;2.80;;
40951;SDS011;26682;51.660;19.338;2023-04-23T11:24:54;12.57;;;3.53;;
40951;SDS011;26682;51.660;19.338;2023-04-23T11:27:37;9.23;;;2.92;;
40951;SDS011;26682;51.660;19.338;2023-04-23T11:30:26;9.90;;;2.83;;
40951;SDS011;26682;51.660;19.338;2023-04-23T11:33:09;5.00;;;2.97;;
40951;SDS011;26682;51.660;19.338;2023-04-23T11:35:52;5.57;;;3.10;;
40951;SDS011;26682;51.660;19.338;2023-04-23T11:38:35;8.73;;;3.38;;
40951;SDS011;26682;51.660;19.338;2023-04-23T11:41:26;5.50;;;3.22;;
40951;SDS011;26682;51.660;19.338;2023-04-23T11:44:11;7.22;;;2.78;;
40951;SDS011;26682;51.660;19.338;2023-04-23T11:46:54;4.95;;;2.85;;
40951;SDS011;26682;51.660;19.338;2023-04-23T11:49:39;10.80;;;3.10;;
40951;SDS011;26682;51.660;19.338;2023-04-23T11:52:25;9.35;;;3.15;;
40951;SDS011;26682;51.660;19.338;2023-04-23T11:55:07;6.22;;;3.17;;
40951;SDS011;26682;51.660;19.338;2023-04-23T11:57:50;13.68;;;3.55;;
40951;SDS011;26682;51.660;19.338;2023-04-23T12:00:33;6.80;;;3.40;;
40951;SDS011;26682;51.660;19.338;2023-04-23T12:03:16;6.03;;;3.28;;
40951;SDS011;26682;51.660;19.338;2023-04-23T12:05:58;5.88;;;3.00;;
40951;SDS011;26682;51.660;19.338;2023-04-23T12:08:41;5.45;;;3.30;;
40951;SDS011;26682;51.660;19.338;2023-04-23T12:11:26;9.50;;;2.88;;
40951;SDS011;26682;51.660;19.338;2023-04-23T12:14:11;4.53;;;2.75;;
40951;SDS011;26682;51.660;19.338;2023-04-23T12:16:55;6.50;;;3.00;;
40951;SDS011;26682;51.660;19.338;2023-04-23T12:19:38;6.97;;;3.08;;
40951;SDS011;26682;51.660;19.338;2023-04-23T12:22:25;6.28;;;2.80;;
40951;SDS011;26682;51.660;19.338;2023-04-23T12:25:09;5.10;;;2.90;;
40951;SDS011;26682;51.660;19.338;2023-04-23T12:27:51;5.20;;;3.15;;
40951;SDS011;26682;51.660;19.338;2023-04-23T12:30:34;9.35;;;3.60;;
40951;SDS011;26682;51.660;19.338;2023-04-23T12:33:23;7.93;;;3.45;;
40951;SDS011;26682;51.660;19.338;2023-04-23T12:38:52;6.72;;;2.75;;
40951;SDS011;26682;51.660;19.338;2023-04-23T12:41:35;6.72;;;3.00;;
40951;SDS011;26682;51.660;19.338;2023-04-23T12:44:17;7.32;;;2.72;;
40951;SDS011;26682;51.660;19.338;2023-04-23T12:47:01;6.18;;;3.13;;
40951;SDS011;26682;51.660;19.338;2023-04-23T12:49:48;4.90;;;3.00;;
40951;SDS011;26682;51.660;19.338;2023-04-23T12:52:35;5.90;;;3.20;;
40951;SDS011;26682;51.660;19.338;2023-04-23T12:55:17;6.30;;;3.10;;
40951;SDS011;26682;51.660;19.338;2023-04-23T12:57:59;5.38;;;2.80;;
40951;SDS011;26682;51.660;19.338;2023-04-23T13:00:42;5.43;;;2.90;;
40951;SDS011;26682;51.660;19.338;2023-04-23T13:03:25;7.25;;;2.90;;
40951;SDS011;26682;51.660;19.338;2023-04-23T13:06:08;5.28;;;2.65;;
40951;SDS011;26682;51.660;19.338;2023-04-23T13:08:51;6.00;;;2.72;;
40951;SDS011;26682;51.660;19.338;2023-04-23T13:11:35;6.13;;;2.42;;
40951;SDS011;26682;51.660;19.338;2023-04-23T13:14:19;4.70;;;2.78;;
40951;SDS011;26682;51.660;19.338;2023-04-23T13:17:02;5.47;;;2.67;;
40951;SDS011;26682;51.660;19.338;2023-04-23T13:19:45;7.07;;;2.40;;
40951;SDS011;26682;51.660;19.338;2023-04-23T13:22:27;6.45;;;2.47;;
40951;SDS011;26682;51.660;19.338;2023-04-23T13:25:11;7.90;;;2.50;;
40951;SDS011;26682;51.660;19.338;2023-04-23T13:27:53;4.80;;;2.70;;
40951;SDS011;26682;51.660;19.338;2023-04-23T13:30:37;5.85;;;2.60;;
40951;SDS011;26682;51.660;19.338;2023-04-23T13:33:19;14.07;;;4.07;;
40951;SDS011;26682;51.660;19.338;2023-04-23T13:36:02;5.10;;;3.42;;
40951;SDS011;26682;51.660;19.338;2023-04-23T13:38:46;7.45;;;2.65;;
40951;SDS011;26682;51.660;19.338;2023-04-23T13:41:29;7.35;;;2.63;;
40951;SDS011;26682;51.660;19.338;2023-04-23T13:44:11;5.28;;;2.88;;
40951;SDS011;26682;51.660;19.338;2023-04-23T13:46:54;7.70;;;2.60;;
40951;SDS011;26682;51.660;19.338;2023-04-23T13:49:42;4.55;;;2.83;;
40951;SDS011;26682;51.660;19.338;2023-04-23T13:52:25;11.70;;;5.40;;
40951;SDS011;26682;51.660;19.338;2023-04-23T13:55:07;8.38;;;3.55;;
40951;SDS011;26682;51.660;19.338;2023-04-23T13:57:51;5.03;;;2.30;;
40951;SDS011;26682;51.660;19.338;2023-04-23T14:00:38;8.32;;;3.00;;
40951;SDS011;26682;51.660;19.338;2023-04-23T14:03:21;6.82;;;2.60;;
40951;SDS011;26682;51.660;19.338;2023-04-23T14:06:03;9.40;;;3.25;;
40951;SDS011;26682;51.660;19.338;2023-04-23T14:08:47;6.28;;;2.92;;
40951;SDS011;26682;51.660;19.338;2023-04-23T14:11:30;5.45;;;3.28;;
40951;SDS011;26682;51.660;19.338;2023-04-23T14:14:13;7.35;;;3.15;;
40951;SDS011;26682;51.660;19.338;2023-04-23T14:16:55;4.38;;;2.60;;
40951;SDS011;26682;51.660;19.338;2023-04-23T14:19:38;9.00;;;2.78;;
40951;SDS011;26682;51.660;19.338;2023-04-23T14:22:20;9.75;;;2.70;;
40951;SDS011;26682;51.660;19.338;2023-04-23T14:25:07;4.13;;;2.90;;
40951;SDS011;26682;51.660;19.338;2023-04-23T14:27:51;4.05;;;2.80;;
40951;SDS011;26682;51.660;19.338;2023-04-23T14:30:37;12.85;;;2.97;;
40951;SDS011;26682;51.660;19.338;2023-04-23T14:33:22;4.55;;;2.95;;
40951;SDS011;26682;51.660;19.338;2023-04-23T14:36:05;6.63;;;2.53;;
40951;SDS011;26682;51.660;19.338;2023-04-23T14:38:47;4.15;;;2.63;;
40951;SDS011;26682;51.660;19.338;2023-04-23T14:41:31;5.05;;;2.80;;
40951;SDS011;26682;51.660;19.338;2023-04-23T14:44:13;6.00;;;2.47;;
40951;SDS011;26682;51.660;19.338;2023-04-23T14:46:57;3.75;;;2.53;;
40951;SDS011;26682;51.660;19.338;2023-04-23T14:49:40;8.88;;;2.70;;
40951;SDS011;26682;51.660;19.338;2023-04-23T14:52:23;4.60;;;2.60;;
40951;SDS011;26682;51.660;19.338;2023-04-23T14:55:05;7.95;;;3.20;;
40951;SDS011;26682;51.660;19.338;2023-04-23T14:57:49;5.07;;;2.30;;
40951;SDS011;26682;51.660;19.338;2023-04-23T15:00:31;5.30;;;2.40;;
40951;SDS011;26682;51.660;19.338;2023-04-23T15:03:15;5.28;;;2.55;;
40951;SDS011;26682;51.660;19.338;2023-04-23T15:05:57;3.78;;;2.13;;
40951;SDS011;26682;51.660;19.338;2023-04-23T15:08:40;6.10;;;2.60;;
40951;SDS011;26682;51.660;19.338;2023-04-23T15:11:23;6.95;;;2.92;;
40951;SDS011;26682;51.660;19.338;2023-04-23T15:14:07;7.40;;;4.28;;
40951;SDS011;26682;51.660;19.338;2023-04-23T15:16:59;2.88;;;2.22;;
40951;SDS011;26682;51.660;19.338;2023-04-23T15:19:42;7.05;;;2.42;;
40951;SDS011;26682;51.660;19.338;2023-04-23T15:22:25;5.90;;;2.33;;
40951;SDS011;26682;51.660;19.338;2023-04-23T15:25:07;5.47;;;2.55;;
40951;SDS011;26682;51.660;19.338;2023-04-23T15:27:50;6.20;;;2.80;;
40951;SDS011;26682;51.660;19.338;2023-04-23T15:30:38;4.38;;;2.95;;
40951;SDS011;26682;51.660;19.338;2023-04-23T15:33:21;2.70;;;2.28;;
40951;SDS011;26682;51.660;19.338;2023-04-23T15:36:04;9.15;;;3.60;;
40951;SDS011;26682;51.660;19.338;2023-04-23T15:38:47;4.65;;;3.08;;
40951;SDS011;26682;51.660;19.338;2023-04-23T15:41:30;6.47;;;2.95;;
40951;SDS011;26682;51.660;19.338;2023-04-23T15:44:13;5.18;;;2.95;;
40951;SDS011;26682;51.660;19.338;2023-04-23T15:46:55;9.63;;;4.22;;
40951;SDS011;26682;51.660;19.338;2023-04-23T15:49:41;7.00;;;2.70;;
40951;SDS011;26682;51.660;19.338;2023-04-23T15:52:25;4.50;;;3.22;;
40951;SDS011;26682;51.660;19.338;2023-04-23T15:55:07;11.88;;;7.72;;
40951;SDS011;26682;51.660;19.338;2023-04-23T15:57:50;6.68;;;2.95;;
40951;SDS011;26682;51.660;19.338;2023-04-23T16:00:34;7.40;;;4.85;;
40951;SDS011;26682;51.660;19.338;2023-04-23T16:03:17;11.40;;;5.40;;
40951;SDS011;26682;51.660;19.338;2023-04-23T16:06:00;9.43;;;3.72;;
40951;SDS011;26682;51.660;19.338;2023-04-23T16:08:45;7.32;;;2.63;;
40951;SDS011;26682;51.660;19.338;2023-04-23T16:11:27;9.52;;;3.97;;
40951;SDS011;26682;51.660;19.338;2023-04-23T16:14:10;6.75;;;2.80;;
40951;SDS011;26682;51.660;19.338;2023-04-23T16:16:53;3.53;;;2.75;;